Time;durP1;ratioP1;P1;durP2;ratioP2;P2;SDS_P1;SDS_P2;PMS_P1;PMS_P2;Temp;Humidity;BMP_temperature;BMP_pressure;BME280_temperature;BME280_humidity;BME280_pressure;Samples;Min_cycle;Max_cycle;Signal;HPM_P1;HPM_P2
2022/07/09 00:02:14;;;;;;;;;4.00;4.00;;;;;24.45;60.11;102574.16;5076700;28;46295;-78
2022/07/09 00:04:39;;;;;;;;;4.75;4.75;;;;;24.42;59.63;102572.31;5079666;27;45436;-80
2022/07/09 00:07:05;;;;;;;;;4.00;3.00;;;;;24.40;59.61;102572.31;5079548;27;45393;-83
2022/07/09 00:09:30;;;;;;;;;6.00;5.00;;;;;24.45;59.42;102579.44;5079222;27;45388;-78
2022/07/09 00:11:56;;;;;;;;;5.50;5.25;;;;;24.46;59.87;102576.81;5079329;28;45597;-78
2022/07/09 00:14:22;;;;;;;;;5.00;4.00;;;;;24.44;59.42;102572.38;5079842;27;45280;-77
2022/07/09 00:16:48;;;;;;;;;4.00;4.00;;;;;24.46;59.60;102575.94;5079430;27;45174;-77
2022/07/09 00:19:14;;;;;;;;;4.25;3.75;;;;;24.47;60.01;102570.66;5079260;27;45151;-76
2022/07/09 00:21:40;;;;;;;;;4.50;4.50;;;;;24.48;59.31;102571.53;5078779;27;45255;-77
2022/07/09 00:24:06;;;;;;;;;5.75;4.00;;;;;24.49;59.66;102573.31;5078929;27;45246;-75
2022/07/09 00:26:31;;;;;;;;;5.00;4.00;;;;;24.46;59.78;102565.34;5079334;27;45267;-76
2022/07/09 00:28:57;;;;;;;;;4.50;4.50;;;;;24.44;59.97;102554.72;5079173;27;45320;-76
2022/07/09 00:31:23;;;;;;;;;4.75;4.75;;;;;24.47;60.21;102565.34;5078697;28;45525;-77
2022/07/09 00:33:48;;;;;;;;;6.00;5.00;;;;;24.43;60.08;102552.91;5078849;27;45443;-77
2022/07/09 00:36:14;;;;;;;;;4.50;4.25;;;;;24.44;59.55;102557.34;5078513;27;45467;-77
2022/07/09 00:38:39;;;;;;;;;4.25;4.25;;;;;24.44;59.96;102557.34;5077533;28;45583;-76
2022/07/09 00:41:05;;;;;;;;;4.75;4.75;;;;;24.45;60.06;102558.25;5078387;27;46350;-76
2022/07/09 00:43:31;;;;;;;;;4.00;4.00;;;;;24.39;60.46;102561.72;5078384;27;45466;-77
2022/07/09 00:45:56;;;;;;;;;5.00;5.00;;;;;24.36;60.52;102551.94;5078800;27;45347;-76
2022/07/09 00:48:22;;;;;;;;;4.00;4.00;;;;;24.36;60.19;102546.63;5079407;27;45394;-77
2022/07/09 00:50:49;;;;;;;;;5.00;5.00;;;;;24.35;60.75;102554.56;5078527;27;46050;-76
2022/07/09 00:53:16;;;;;;;;;5.25;5.25;;;;;24.39;60.85;102567.00;5078505;27;45240;-77
2022/07/09 00:55:44;;;;;;;;;5.75;4.00;;;;;24.38;60.45;102566.09;5078542;27;45353;-77
2022/07/09 00:58:11;;;;;;;;;4.25;4.25;;;;;24.35;61.20;102549.28;5078567;27;45615;-77
2022/07/09 01:00:38;;;;;;;;;4.00;4.00;;;;;24.31;60.25;102552.72;5078463;27;45675;-77
2022/07/09 01:03:03;;;;;;;;;5.00;5.00;;;;;24.30;60.59;102551.84;5076853;28;45287;-80
2022/07/09 01:05:35;;;;;;;;;7.50;4.75;;;;;24.30;61.19;102556.28;5078677;28;45280;-79
2022/07/09 01:08:06;;;;;;;;;6.00;6.00;;;;;24.26;61.11;102550.00;5077055;28;45393;-77
2022/07/09 01:10:33;;;;;;;;;4.50;3.25;;;;;24.26;61.46;102552.66;5078481;27;46370;-78
2022/07/09 01:12:58;;;;;;;;;4.50;3.00;;;;;24.25;60.88;102553.53;5077797;27;45419;-78
2022/07/09 01:15:24;;;;;;;;;5.50;5.50;;;;;24.25;60.95;102545.59;5078831;27;45413;-78
2022/07/09 01:17:52;;;;;;;;;5.75;4.00;;;;;24.24;60.50;102541.19;5078037;27;45599;-77
2022/07/09 01:20:29;;;;;;;;;3.50;3.00;;;;;24.21;61.50;102538.47;5077516;27;46319;-77
2022/07/09 01:22:55;;;;;;;;;5.50;4.50;;;;;24.16;61.41;102537.50;5077967;28;45418;-77
2022/07/09 01:25:31;;;;;;;;;7.00;5.00;;;;;24.13;61.47;102529.53;5078329;28;45322;-78
2022/07/09 01:27:57;;;;;;;;;6.50;5.00;;;;;24.11;61.80;102534.78;5078459;28;45300;-77
2022/07/09 01:30:27;;;;;;;;;6.75;5.00;;;;;24.10;61.19;102536.56;5078058;28;45529;-77
2022/07/09 01:32:54;;;;;;;;;5.00;5.00;;;;;24.07;61.37;102527.69;5078258;28;45244;-76
2022/07/09 01:35:21;;;;;;;;;5.00;5.00;;;;;24.04;62.07;102528.50;5077515;28;45492;-77
2022/07/09 01:37:47;;;;;;;;;7.00;5.00;;;;;24.00;62.22;102531.06;5078267;27;45535;-76
2022/07/09 01:40:13;;;;;;;;;5.00;5.00;;;;;24.00;61.83;102532.00;5077619;28;45508;-78
2022/07/09 01:42:39;;;;;;;;;5.00;5.00;;;;;23.98;62.00;102525.78;5077996;27;45803;-77
2022/07/09 01:45:06;;;;;;;;;5.50;4.50;;;;;23.94;62.12;102519.50;5077558;27;45429;-77
2022/07/09 01:47:32;;;;;;;;;6.25;5.00;;;;;23.99;62.22;102527.56;5078019;27;45543;-77
2022/07/09 01:49:57;;;;;;;;;6.00;5.00;;;;;23.99;62.15;102524.00;5077535;27;46321;-76
2022/07/09 01:52:23;;;;;;;;;5.00;5.00;;;;;23.97;62.03;102520.47;5077027;27;45433;-77
2022/07/09 01:54:49;;;;;;;;;5.00;5.00;;;;;23.93;62.05;102515.09;5077904;27;45303;-78
2022/07/09 01:57:14;;;;;;;;;6.00;6.00;;;;;23.92;63.29;102512.38;5077727;28;45173;-78
2022/07/09 01:59:40;;;;;;;;;6.00;6.00;;;;;23.88;63.13;102511.47;5077561;27;46656;-77
2022/07/09 02:02:06;;;;;;;;;6.00;6.00;;;;;23.84;63.78;102506.09;5077167;27;45203;-77
2022/07/09 02:04:31;;;;;;;;;6.00;6.00;;;;;23.79;63.77;102506.00;5078013;27;45816;-78
2022/07/09 02:06:57;;;;;;;;;1.75;1.75;;;;;23.73;64.46;102503.28;5077138;27;45382;-78
2022/07/09 02:09:23;;;;;;;;;7.75;6.25;;;;;23.72;65.32;102509.44;5075956;28;47303;-78
2022/07/09 02:11:49;;;;;;;;;8.25;5.00;;;;;23.70;65.11;102504.13;5077637;27;45582;-77
2022/07/09 02:14:15;;;;;;;;;6.00;5.00;;;;;23.63;65.42;102495.19;5076852;28;45492;-77
2022/07/09 02:16:40;;;;;;;;;5.50;5.25;;;;;23.59;65.22;102493.34;5077255;27;45391;-77
2022/07/09 02:19:06;;;;;;;;;5.75;5.75;;;;;23.54;65.55;102496.78;5076830;27;45476;-78
2022/07/09 02:21:35;;;;;;;;;5.25;5.25;;;;;23.50;65.63;102502.00;5077056;27;45452;-77
2022/07/09 02:24:01;;;;;;;;;7.75;6.75;;;;;23.45;66.21;102494.84;5076280;27;45252;-77
2022/07/09 02:26:28;;;;;;;;;5.00;5.00;;;;;23.43;66.52;102494.81;5075967;28;45492;-77
2022/07/09 02:28:54;;;;;;;;;5.00;5.00;;;;;23.42;66.99;102486.88;5075166;28;46308;-77
2022/07/09 02:31:20;;;;;;;;;6.25;6.00;;;;;23.38;67.04;102485.91;5076853;27;45400;-77
2022/07/09 02:33:45;;;;;;;;;6.00;6.00;;;;;23.39;66.05;102489.47;5077137;28;45445;-78
2022/07/09 02:36:11;;;;;;;;;6.00;5.50;;;;;23.34;66.99;102481.44;5077194;27;45448;-78
2022/07/09 02:38:36;;;;;;;;;5.50;5.50;;;;;23.28;67.43;102479.59;5077112;27;45680;-77
2022/07/09 02:41:02;;;;;;;;;5.00;5.00;;;;;23.25;67.24;102479.50;5076627;27;45416;-77
2022/07/09 02:43:28;;;;;;;;;4.75;4.25;;;;;23.26;67.60;102477.78;5077334;27;45306;-77
2022/07/09 02:45:55;;;;;;;;;6.00;6.00;;;;;23.26;67.59;102491.00;5077364;27;45487;-77
2022/07/09 02:48:27;;;;;;;;;6.50;5.75;;;;;23.22;66.98;102481.22;5076152;27;46191;-77
2022/07/09 02:50:53;;;;;;;;;5.00;5.00;;;;;23.22;67.12;102489.16;5076756;27;45593;-77
2022/07/09 02:53:19;;;;;;;;;5.00;5.00;;;;;23.18;68.07;102491.69;5076739;28;45231;-77
2022/07/09 02:55:45;;;;;;;;;5.75;5.75;;;;;23.15;67.62;102488.09;5077090;27;45215;-77
2022/07/09 02:58:11;;;;;;;;;5.50;5.50;;;;;23.04;68.21;102494.06;5076613;27;46190;-77
2022/07/09 03:00:41;;;;;;;;;5.50;5.50;;;;;22.97;68.28;102489.53;5077008;27;45765;-78
2022/07/09 03:03:07;;;;;;;;;6.00;6.00;;;;;22.96;68.39;102489.47;5078811;27;45410;-81
2022/07/09 03:05:34;;;;;;;;;6.25;6.00;;;;;22.94;68.39;102496.50;5078904;27;45525;-81
2022/07/09 03:07:59;;;;;;;;;5.25;5.00;;;;;22.90;68.59;102498.16;5074600;28;45631;-83
2022/07/09 03:10:25;;;;;;;;;7.00;7.00;;;;;22.86;68.61;102497.22;5076887;28;45298;-82
2022/07/09 03:12:51;;;;;;;;;8.00;6.75;;;;;22.78;68.75;102505.84;5076689;27;45394;-83
2022/07/09 03:15:17;;;;;;;;;7.25;6.50;;;;;22.67;69.46;102498.59;5076341;28;45680;-83
2022/07/09 03:17:43;;;;;;;;;7.00;7.00;;;;;22.62;69.84;102497.59;5076429;27;46374;-82
2022/07/09 03:20:10;;;;;;;;;7.00;7.00;;;;;22.58;70.25;102501.00;5076169;27;45816;-83
2022/07/09 03:22:36;;;;;;;;;8.75;5.75;;;;;22.55;70.47;102498.34;5076539;27;45366;-83
2022/07/09 03:25:03;;;;;;;;;7.50;7.50;;;;;22.49;70.01;102491.16;5076607;27;45393;-82
2022/07/09 03:27:29;;;;;;;;;8.50;7.00;;;;;22.48;70.78;102493.75;5076388;27;46718;-82
2022/07/09 03:29:55;;;;;;;;;8.00;6.75;;;;;22.40;70.89;102494.47;5076413;28;45208;-83
2022/07/09 03:32:21;;;;;;;;;7.50;7.50;;;;;22.33;71.36;102491.63;5076180;27;45203;-78
2022/07/09 03:34:47;;;;;;;;;7.25;7.25;;;;;22.32;71.37;102492.47;5076285;27;45557;-79
2022/07/09 03:37:13;;;;;;;;;13.00;9.00;;;;;22.27;71.75;102492.38;5077909;28;48195;-82
2022/07/09 03:39:39;;;;;;;;;7.00;6.25;;;;;22.33;72.09;102500.44;5079748;27;45398;-83
2022/07/09 03:42:06;;;;;;;;;9.00;8.25;;;;;22.33;71.72;102500.44;5079778;28;45390;-81
2022/07/09 03:44:33;;;;;;;;;6.25;6.25;;;;;22.30;71.88;102494.22;5085873;28;45290;-83
2022/07/09 03:46:58;;;;;;;;;7.00;7.00;;;;;22.36;71.89;102503.13;5084927;27;45344;-79
2022/07/09 03:49:24;;;;;;;;;9.00;7.75;;;;;22.32;71.89;102506.59;5080979;27;45220;-82
2022/07/09 03:51:50;;;;;;;;;9.00;7.75;;;;;22.30;72.02;102517.97;5080603;27;45303;-81
2022/07/09 03:54:15;;;;;;;;;8.25;8.00;;;;;22.32;72.05;102510.94;5079607;27;45273;-82
2022/07/09 03:56:41;;;;;;;;;9.00;9.00;;;;;22.32;72.27;102522.41;5078357;28;46404;-80
2022/07/09 03:59:06;;;;;;;;;7.50;6.50;;;;;22.28;72.34;102523.19;5079384;28;45251;-80
2022/07/09 04:01:32;;;;;;;;;9.00;7.00;;;;;22.20;72.07;102530.03;5078158;28;45288;-79
2022/07/09 04:03:58;;;;;;;;;8.25;7.75;;;;;22.18;72.48;102531.75;5079703;27;45664;-78
2022/07/09 04:06:24;;;;;;;;;9.00;8.00;;;;;22.10;72.83;102526.28;5079688;27;45432;-77
2022/07/09 04:08:50;;;;;;;;;8.50;7.75;;;;;22.06;73.27;102525.31;5079118;27;45789;-77
2022/07/09 04:11:16;;;;;;;;;7.25;7.25;;;;;22.06;73.06;102530.59;5079366;27;45370;-79
2022/07/09 04:13:41;;;;;;;;;7.00;7.00;;;;;22.02;73.33;102527.84;5083337;27;45392;-80
2022/07/09 04:16:08;;;;;;;;;7.25;7.25;;;;;22.03;73.59;102519.94;5083288;27;46223;-81
2022/07/09 04:18:35;;;;;;;;;7.00;6.25;;;;;22.01;73.80;102534.88;5080606;27;45243;-83
2022/07/09 04:21:01;;;;;;;;;9.50;8.50;;;;;21.94;74.31;102527.63;5079751;27;45254;-81
2022/07/09 04:23:27;;;;;;;;;9.00;9.00;;;;;21.92;74.72;102532.88;5079471;28;45648;-76
2022/07/09 04:25:53;;;;;;;;;8.00;8.00;;;;;21.92;74.98;102527.59;5079915;27;45454;-81
2022/07/09 04:28:19;;;;;;;;;9.00;7.00;;;;;21.87;75.14;102534.50;5079112;28;45395;-79
2022/07/09 04:30:48;;;;;;;;;9.25;9.25;;;;;21.76;75.76;102531.59;5081490;27;45396;-79
2022/07/09 04:33:14;;;;;;;;;8.00;8.00;;;;;21.74;75.79;102533.31;5081486;27;45484;-81
2022/07/09 04:35:40;;;;;;;;;9.25;8.75;;;;;21.70;76.46;102525.28;5079963;27;46503;-79
2022/07/09 04:38:06;;;;;;;;;8.75;8.50;;;;;21.74;76.16;102524.50;5079040;27;45238;-77
2022/07/09 04:40:31;;;;;;;;;9.00;8.50;;;;;21.71;76.42;102511.25;5079121;27;45656;-79
2022/07/09 04:42:57;;;;;;;;;9.00;7.25;;;;;21.75;75.39;102510.47;5078697;28;45739;-77
2022/07/09 04:45:22;;;;;;;;;9.25;8.50;;;;;21.76;75.92;102512.25;5079323;28;45420;-77
2022/07/09 04:47:48;;;;;;;;;10.00;9.00;;;;;21.80;75.03;102528.22;5078268;27;45532;-78
2022/07/09 04:50:14;;;;;;;;;9.00;8.00;;;;;21.78;75.46;102527.25;5078698;27;45381;-82
2022/07/09 04:52:40;;;;;;;;;12.00;10.00;;;;;21.80;75.77;102514.13;5078976;27;45467;-79
2022/07/09 04:55:07;;;;;;;;;8.50;8.50;;;;;21.77;76.10;102530.75;5078305;28;45453;-79
2022/07/09 04:57:33;;;;;;;;;12.00;11.00;;;;;21.80;77.37;102540.47;5078515;28;45337;-81
2022/07/09 05:00:00;;;;;;;;;7.75;7.00;;;;;21.74;76.61;102535.94;5078404;27;45289;-78
2022/07/09 05:02:26;;;;;;;;;8.75;8.75;;;;;21.69;76.84;102527.03;5079099;27;45418;-78
2022/07/09 05:04:51;;;;;;;;;9.25;9.25;;;;;21.65;76.96;102531.31;5078631;27;46520;-77
2022/07/09 05:07:17;;;;;;;;;8.50;7.25;;;;;21.68;76.98;102537.50;5078135;28;45228;-76
2022/07/09 05:09:43;;;;;;;;;10.50;9.25;;;;;21.68;77.11;102537.50;5078383;27;45457;-77
2022/07/09 05:12:10;;;;;;;;;10.50;10.25;;;;;21.69;76.89;102542.84;5078310;28;45377;-80
2022/07/09 05:14:37;;;;;;;;;10.50;9.75;;;;;21.67;77.06;102541.91;5078285;27;45428;-80
2022/07/09 05:17:03;;;;;;;;;10.75;9.00;;;;;21.68;77.12;102537.50;5081737;27;45465;-83
2022/07/09 05:19:29;;;;;;;;;8.75;8.00;;;;;21.64;76.04;102532.19;5082498;27;45276;-81
2022/07/09 05:21:54;;;;;;;;;9.00;9.00;;;;;21.64;76.63;102536.53;5079301;28;45620;-79
2022/07/09 05:24:20;;;;;;;;;11.00;9.50;;;;;21.67;76.67;102534.00;5075610;28;46787;-84
2022/07/09 05:26:46;;;;;;;;;11.50;9.00;;;;;21.68;76.39;102529.59;5077946;27;45471;-80
2022/07/09 05:29:12;;;;;;;;;10.25;10.25;;;;;21.71;76.30;102533.22;5077668;27;45219;-79
2022/07/09 05:31:38;;;;;;;;;11.50;10.50;;;;;21.76;75.82;102530.69;5076769;28;45509;-75
2022/07/09 05:34:03;;;;;;;;;9.00;8.00;;;;;21.78;76.31;102539.53;5077626;28;45404;-83
2022/07/09 05:36:29;;;;;;;;;10.00;10.00;;;;;21.80;75.95;102532.56;5078019;27;45462;-83
2022/07/09 05:38:56;;;;;;;;;10.50;9.25;;;;;21.80;76.01;102535.19;5078601;27;45352;-84
2022/07/09 05:41:22;;;;;;;;;11.00;11.00;;;;;21.80;75.72;102535.19;5078027;28;45546;-79
2022/07/09 05:43:48;;;;;;;;;11.25;10.25;;;;;21.82;77.01;102530.88;5077540;28;45626;-84
2022/07/09 05:46:13;;;;;;;;;11.25;10.25;;;;;21.77;75.84;102524.56;5078390;28;45659;-86
2022/07/09 05:48:39;;;;;;;;;7.50;6.50;;;;;21.77;76.56;102521.94;5078913;27;45176;-85
2022/07/09 05:51:05;;;;;;;;;11.50;8.75;;;;;21.74;76.28;102528.03;5094474;27;45235;-84
2022/07/09 05:53:31;;;;;;;;;10.00;10.00;;;;;21.75;76.27;102526.31;5070030;27;46322;-80
2022/07/09 05:55:57;;;;;;;;;9.00;9.00;;;;;21.79;75.94;102534.31;5073637;28;45770;-78
2022/07/09 05:58:23;;;;;;;;;10.25;9.00;;;;;21.80;76.31;102538.75;5075609;27;45608;-82
2022/07/09 06:00:48;;;;;;;;;13.00;11.75;;;;;21.83;76.35;102535.28;5076004;28;45496;-80
2022/07/09 06:03:14;;;;;;;;;12.50;10.00;;;;;21.86;76.08;102535.38;5082451;27;45729;-78
2022/07/09 06:05:39;;;;;;;;;10.75;9.75;;;;;21.85;76.27;102530.03;5080359;28;45418;-77
2022/07/09 06:08:05;;;;;;;;;10.50;9.00;;;;;21.82;76.49;102528.22;5081053;27;45457;-82
2022/07/09 06:10:31;;;;;;;;;10.50;10.00;;;;;21.88;76.07;102536.28;5080047;28;45352;-78
2022/07/09 06:12:56;;;;;;;;;14.75;13.00;;;;;21.86;75.88;102531.84;5074663;28;45685;-80
2022/07/09 06:15:22;;;;;;;;;11.50;11.50;;;;;21.91;75.48;102535.50;5076951;27;45647;-80
2022/07/09 06:17:50;;;;;;;;;8.00;8.00;;;;;21.93;76.00;102528.50;5077071;28;45326;-81
2022/07/09 06:20:16;;;;;;;;;9.50;9.25;;;;;21.94;76.37;102532.91;5075330;27;45424;-81
2022/07/09 06:22:42;;;;;;;;;12.25;12.00;;;;;21.98;76.04;102541.78;5075520;27;46107;-83
2022/07/09 06:25:08;;;;;;;;;11.00;10.00;;;;;21.93;76.09;102539.03;5075412;27;45945;-83
2022/07/09 06:27:34;;;;;;;;;12.00;12.00;;;;;21.98;75.82;102537.41;5075811;27;45523;-82
2022/07/09 06:30:00;;;;;;;;;12.00;12.00;;;;;22.02;75.62;102538.38;5077654;27;45445;-80
2022/07/09 06:32:27;;;;;;;;;11.25;11.00;;;;;22.05;76.24;102527.91;5079901;27;45412;-81
2022/07/09 06:34:53;;;;;;;;;11.50;11.50;;;;;22.10;75.46;102529.81;5079437;28;45946;-81
2022/07/09 06:37:19;;;;;;;;;12.50;12.00;;;;;22.13;75.50;102534.28;5076075;28;45137;-79
2022/07/09 06:39:44;;;;;;;;;11.75;10.75;;;;;22.16;75.82;102528.16;5078519;28;45430;-79
2022/07/09 06:42:12;;;;;;;;;10.25;9.25;;;;;22.18;75.08;102530.00;5076274;28;45819;-81
2022/07/09 06:44:38;;;;;;;;;11.75;10.00;;;;;22.12;75.52;102524.56;5077717;27;45800;-79
2022/07/09 06:47:05;;;;;;;;;8.50;6.75;;;;;22.18;75.65;102529.09;5081230;27;45440;-80
2022/07/09 06:49:31;;;;;;;;;9.75;9.25;;;;;22.18;75.42;102534.38;5081148;28;45553;-79
2022/07/09 06:51:59;;;;;;;;;10.50;10.50;;;;;22.22;75.56;102528.34;5080632;27;46399;-79
2022/07/09 06:54:25;;;;;;;;;12.50;11.75;;;;;22.17;75.99;102516.75;5071353;28;45407;-84
2022/07/09 06:56:52;;;;;;;;;13.00;12.00;;;;;22.22;75.58;102525.69;5075994;28;45254;-80
2022/07/09 06:59:19;;;;;;;;;13.25;11.00;;;;;22.26;75.44;102528.44;5076225;27;45516;-81
2022/07/09 07:01:45;;;;;;;;;11.25;9.75;;;;;22.29;75.91;102527.63;5074664;27;45412;-82
2022/07/09 07:04:14;;;;;;;;;11.50;8.50;;;;;22.36;75.74;102528.66;5076022;27;45378;-82
2022/07/09 07:06:46;;;;;;;;;7.75;7.75;;;;;22.41;75.54;102527.94;5074678;27;45464;-82
2022/07/09 07:09:12;;;;;;;;;8.00;8.00;;;;;22.41;75.44;102521.75;5073932;27;45418;-81
2022/07/09 07:11:37;;;;;;;;;12.25;10.50;;;;;22.42;75.39;102518.25;5075262;27;46152;-82
2022/07/09 07:14:03;;;;;;;;;12.25;10.25;;;;;22.43;75.23;102517.41;5074881;27;45467;-80
2022/07/09 07:16:28;;;;;;;;;10.50;9.00;;;;;22.46;75.83;102527.16;5075395;27;45356;-81
2022/07/09 07:18:54;;;;;;;;;8.75;8.75;;;;;22.49;75.68;102517.56;5077301;28;45400;-80
2022/07/09 07:21:20;;;;;;;;;9.00;9.00;;;;;22.53;75.88;102524.69;5076071;28;45246;-81
2022/07/09 07:23:45;;;;;;;;;8.75;8.50;;;;;22.57;75.28;102517.72;5077349;27;45261;-84
2022/07/09 07:26:11;;;;;;;;;10.00;9.00;;;;;22.63;75.32;102520.50;5081568;28;45232;-82
2022/07/09 07:28:36;;;;;;;;;10.50;10.00;;;;;22.64;75.07;102517.00;5077556;28;45242;-83
2022/07/09 07:31:04;;;;;;;;;12.00;11.00;;;;;22.72;74.69;102528.63;5075971;27;45432;-82
2022/07/09 07:33:29;;;;;;;;;8.25;5.00;;;;;22.68;74.38;102528.53;5080406;27;45379;-82
2022/07/09 07:35:55;;;;;;;;;10.50;9.50;;;;;22.65;74.23;102523.16;5081315;27;45444;-82
2022/07/09 07:38:20;;;;;;;;;9.25;8.00;;;;;22.65;74.41;102523.16;5079446;27;45312;-83
2022/07/09 07:40:46;;;;;;;;;10.25;9.25;;;;;22.67;74.63;102524.09;5077256;27;46334;-83
2022/07/09 07:43:12;;;;;;;;;9.00;7.00;;;;;22.77;74.58;102526.06;5076330;28;45357;-83
2022/07/09 07:45:38;;;;;;;;;8.00;8.00;;;;;22.82;74.27;102526.16;5075642;28;45354;-82
2022/07/09 07:48:04;;;;;;;;;10.25;10.00;;;;;22.78;74.17;102517.31;5076763;27;45279;-83
2022/07/09 07:50:29;;;;;;;;;9.25;9.25;;;;;22.93;73.72;102529.06;5075970;27;45254;-82
2022/07/09 07:52:56;;;;;;;;;9.00;9.00;;;;;22.92;73.59;102525.50;5076110;27;45303;-82
2022/07/09 07:55:22;;;;;;;;;9.00;8.25;;;;;22.93;73.58;102514.09;5075005;28;45302;-82
2022/07/09 07:57:48;;;;;;;;;8.25;8.25;;;;;22.94;72.91;102520.28;5076408;28;45422;-83
2022/07/09 08:00:13;;;;;;;;;10.25;9.75;;;;;22.98;72.95;102520.38;5075880;27;46283;-81
2022/07/09 08:02:39;;;;;;;;;8.50;8.00;;;;;23.05;72.40;102521.38;5075822;27;45500;-81
2022/07/09 08:05:06;;;;;;;;;8.00;7.25;;;;;23.08;72.55;102512.63;5075926;28;45310;-82
2022/07/09 08:07:32;;;;;;;;;8.00;7.00;;;;;23.15;72.51;102517.16;5077137;28;45428;-82
2022/07/09 08:09:58;;;;;;;;;9.75;7.25;;;;;23.15;72.40;102515.44;5076856;27;45468;-83
2022/07/09 08:12:24;;;;;;;;;8.50;8.50;;;;;23.26;72.17;102518.28;5077845;27;45261;-83
2022/07/09 08:14:49;;;;;;;;;8.25;6.50;;;;;23.29;71.19;102521.00;5076507;27;45194;-83
2022/07/09 08:17:15;;;;;;;;;7.00;7.00;;;;;23.36;71.58;102522.03;5075896;27;45236;-83
2022/07/09 08:19:41;;;;;;;;;8.25;7.25;;;;;23.34;70.88;102507.88;5074084;28;47828;-82
2022/07/09 08:22:07;;;;;;;;;8.75;7.00;;;;;23.40;70.68;102510.63;5076263;27;45766;-82
2022/07/09 08:24:32;;;;;;;;;9.75;8.00;;;;;23.48;70.51;102502.84;5080808;28;45240;-82
2022/07/09 08:26:58;;;;;;;;;8.25;8.25;;;;;23.52;69.79;102509.06;5081010;27;45334;-81
2022/07/09 08:29:25;;;;;;;;;6.25;6.25;;;;;23.54;69.44;102504.72;5080932;28;45473;-82
2022/07/09 08:31:51;;;;;;;;;8.00;7.00;;;;;23.55;69.29;102503.84;5078153;28;45862;-83
2022/07/09 08:34:17;;;;;;;;;7.00;7.00;;;;;23.60;68.79;102512.72;5079135;27;45310;-82
2022/07/09 08:36:43;;;;;;;;;7.00;6.50;;;;;23.61;69.19;102506.59;5077948;28;45632;-82
2022/07/09 08:39:08;;;;;;;;;8.75;7.50;;;;;23.64;69.38;102501.34;5077104;28;46223;-83
2022/07/09 08:41:34;;;;;;;;;11.75;7.75;;;;;23.67;69.42;102501.41;5078597;28;45269;-81
2022/07/09 08:44:04;;;;;;;;;9.00;5.75;;;;;23.68;69.49;102499.66;5078490;27;45180;-81
2022/07/09 08:46:31;;;;;;;;;6.25;6.25;;;;;23.74;68.73;102500.66;5079460;27;45603;-81
2022/07/09 08:49:00;;;;;;;;;8.50;7.25;;;;;23.75;69.56;102502.44;5078731;28;46354;-82
2022/07/09 08:51:26;;;;;;;;;7.00;7.00;;;;;23.76;69.15;102487.44;5080857;27;45646;-81
2022/07/09 08:53:54;;;;;;;;;9.00;8.00;;;;;23.83;68.62;102486.69;5080043;27;45309;-83
2022/07/09 08:56:20;;;;;;;;;9.75;7.00;;;;;23.87;68.69;102485.88;5071159;27;45409;-81
2022/07/09 08:58:46;;;;;;;;;8.25;8.25;;;;;23.91;68.32;102490.34;5056973;28;46228;-82
2022/07/09 09:01:17;;;;;;;;;6.00;6.00;;;;;23.95;68.00;102486.03;5056326;28;45641;-81
2022/07/09 09:03:43;;;;;;;;;7.25;6.25;;;;;23.97;67.53;102483.44;5056537;28;45396;-82
2022/07/09 09:06:10;;;;;;;;;8.75;8.75;;;;;23.99;67.12;102482.59;5057819;28;45466;-82
2022/07/09 09:08:38;;;;;;;;;7.25;6.00;;;;;24.02;67.25;102481.72;5058303;28;46546;-82
2022/07/09 09:11:05;;;;;;;;;6.25;5.00;;;;;24.01;66.90;102479.94;5061308;28;45727;-80
2022/07/09 09:13:36;;;;;;;;;8.50;6.50;;;;;24.03;66.84;102472.94;5059800;28;45273;-81
2022/07/09 09:16:09;;;;;;;;;9.25;7.25;;;;;24.10;66.70;102480.09;5058730;28;45449;-81
2022/07/09 09:18:49;;;;;;;;;7.00;7.00;;;;;24.11;66.12;102477.47;5073320;28;46903;-81
2022/07/09 09:21:18;;;;;;;;;7.25;5.50;;;;;24.14;66.53;102470.44;5057574;28;45227;-83
2022/07/09 09:23:49;;;;;;;;;5.00;4.00;;;;;24.15;66.42;102467.81;5057910;28;45387;-82
2022/07/09 09:26:18;;;;;;;;;8.25;7.75;;;;;24.19;67.16;102461.69;5056501;28;45489;-82
2022/07/09 09:28:50;;;;;;;;;8.00;6.00;;;;;24.21;66.55;102462.59;5057755;28;46479;-82
2022/07/09 09:31:32;;;;;;;;;7.25;5.00;;;;;24.24;66.02;102465.31;5058308;28;45225;-82
2022/07/09 09:34:15;;;;;;;;;5.75;4.75;;;;;24.33;64.61;102476.88;5057860;28;45446;-82
2022/07/09 09:36:43;;;;;;;;;5.00;5.00;;;;;24.32;65.08;102470.72;5058499;28;45329;-83
2022/07/09 09:39:23;;;;;;;;;7.50;7.00;;;;;24.35;65.02;102480.44;5057623;28;45410;-84
2022/07/09 09:41:53;;;;;;;;;5.75;5.25;;;;;24.39;65.25;102477.00;5057432;28;45307;-82
2022/07/09 09:44:23;;;;;;;;;7.00;6.00;;;;;24.36;65.29;102463.69;5057301;28;45219;-83
2022/07/09 09:46:49;;;;;;;;;7.00;5.75;;;;;24.43;64.77;102470.84;5056401;28;45561;-81
2022/07/09 09:49:15;;;;;;;;;5.75;5.75;;;;;24.47;64.51;102470.03;5056945;28;46181;-81
2022/07/09 09:51:52;;;;;;;;;10.00;10.00;;;;;24.54;64.42;102474.53;5056953;28;45320;-81
2022/07/09 09:54:18;;;;;;;;;6.50;6.00;;;;;24.55;64.49;102460.44;5057004;28;45429;-80
2022/07/09 09:56:45;;;;;;;;;5.50;5.00;;;;;24.65;64.08;102474.69;5057470;28;45172;-82
2022/07/09 09:59:12;;;;;;;;;4.75;4.75;;;;;24.72;64.42;102463.31;5060570;28;46302;-80
2022/07/09 10:01:38;;;;;;;;;5.25;5.25;;;;;24.80;63.42;102465.16;5062013;28;45773;-81
2022/07/09 10:04:04;;;;;;;;;7.00;5.00;;;;;24.82;63.29;102459.03;5058192;28;45339;-81
2022/07/09 10:06:30;;;;;;;;;5.50;4.00;;;;;24.84;63.70;102462.56;5058375;28;45526;-80
2022/07/09 10:08:56;;;;;;;;;5.00;5.00;;;;;24.91;63.61;102466.19;5057578;28;45545;-80
2022/07/09 10:11:23;;;;;;;;;6.00;4.75;;;;;24.95;63.32;102459.16;5057882;28;45408;-80
2022/07/09 10:13:56;;;;;;;;;7.75;6.00;;;;;25.06;63.79;102467.22;5060163;28;45393;-80
2022/07/09 10:16:39;;;;;;;;;6.00;6.00;;;;;25.04;64.00;102461.94;5058939;28;45470;-80
2022/07/09 10:19:05;;;;;;;;;6.00;5.00;;;;;25.15;63.29;102468.22;5057895;28;46088;-81
2022/07/09 10:21:38;;;;;;;;;4.25;4.25;;;;;25.17;62.82;102458.50;5057270;28;45456;-80
2022/07/09 10:24:05;;;;;;;;;7.25;6.00;;;;;25.19;62.62;102454.13;5056828;28;45453;-81
2022/07/09 10:26:57;;;;;;;;;6.00;5.00;;;;;25.28;61.70;102455.97;5057260;28;45463;-80
2022/07/09 10:29:26;;;;;;;;;6.25;6.25;;;;;25.35;61.76;102457.81;5054904;28;46519;-81
2022/07/09 10:31:56;;;;;;;;;7.00;6.00;;;;;25.49;61.68;102462.38;5056849;28;45521;-81
2022/07/09 10:34:38;;;;;;;;;6.25;5.50;;;;;25.57;61.90;102455.38;5056795;28;45673;-82
2022/07/09 10:37:05;;;;;;;;;5.25;5.25;;;;;25.63;60.81;102454.53;5056807;28;45216;-82
2022/07/09 10:39:32;;;;;;;;;5.00;5.00;;;;;25.76;60.45;102450.22;5056650;28;46457;-82
2022/07/09 10:42:20;;;;;;;;;7.00;5.50;;;;;25.80;59.96;102444.97;5071801;28;45405;-81
2022/07/09 10:44:49;;;;;;;;;8.25;6.50;;;;;25.79;60.49;102429.00;5056303;28;45412;-81
2022/07/09 10:47:15;;;;;;;;;9.25;8.00;;;;;25.80;60.87;102433.44;5056448;28;45283;-82
2022/07/09 10:49:41;;;;;;;;;7.00;5.25;;;;;25.84;59.90;102434.34;5061436;28;45423;-81
2022/07/09 10:52:08;;;;;;;;;5.75;5.75;;;;;25.89;58.86;102433.50;5060910;28;45246;-81
2022/07/09 10:54:44;;;;;;;;;4.00;4.00;;;;;26.00;57.56;102427.38;5056886;28;45286;-81
2022/07/09 10:57:10;;;;;;;;;12.00;11.00;;;;;26.08;57.22;102433.63;5056878;28;45314;-82
2022/07/09 10:59:36;;;;;;;;;7.25;6.25;;;;;26.08;57.18;102429.22;5056287;28;45384;-82
2022/07/09 11:02:02;;;;;;;;;8.00;7.00;;;;;26.11;56.18;102423.06;5055776;28;45332;-81
2022/07/09 11:04:30;;;;;;;;;7.00;6.00;;;;;26.11;55.97;102417.75;5056155;28;45392;-82
2022/07/09 11:06:56;;;;;;;;;8.00;8.00;;;;;26.10;56.61;102413.31;5056889;28;45225;-82
2022/07/09 11:09:24;;;;;;;;;6.50;6.00;;;;;26.15;56.70;102416.91;5055035;28;47729;-83
2022/07/09 11:11:50;;;;;;;;;7.75;7.75;;;;;26.22;56.39;102415.16;5056137;28;45782;-83
2022/07/09 11:14:16;;;;;;;;;7.25;6.00;;;;;26.33;55.82;102408.13;5055934;28;45424;-83
2022/07/09 11:16:41;;;;;;;;;7.00;6.00;;;;;26.45;55.00;102403.75;5056638;28;45420;-83
2022/07/09 11:19:19;;;;;;;;;5.00;5.00;;;;;26.65;54.42;102409.13;5055548;28;45475;-83
2022/07/09 11:21:45;;;;;;;;;5.00;5.00;;;;;26.80;53.66;102398.59;5055853;28;45744;-83